sensor_id;sensor_type;location;lat;lon;timestamp;P1;durP1;ratioP1;P2;durP2;ratioP2
10281;SDS011;5186;59.472;18.048;2023-06-26T00:01:49;4.93;;;3.40;;
10281;SDS011;5186;59.472;18.048;2023-06-26T00:04:15;3.97;;;3.30;;
10281;SDS011;5186;59.472;18.048;2023-06-26T00:06:41;6.73;;;3.37;;
10281;SDS011;5186;59.472;18.048;2023-06-26T00:09:07;4.23;;;3.30;;
10281;SDS011;5186;59.472;18.048;2023-06-26T00:11:33;5.87;;;3.43;;
10281;SDS011;5186;59.472;18.048;2023-06-26T00:13:59;6.23;;;3.50;;
10281;SDS011;5186;59.472;18.048;2023-06-26T00:16:25;4.50;;;3.33;;
10281;SDS011;5186;59.472;18.048;2023-06-26T00:18:52;3.60;;;3.23;;
10281;SDS011;5186;59.472;18.048;2023-06-26T00:21:18;4.03;;;3.00;;
10281;SDS011;5186;59.472;18.048;2023-06-26T00:23:44;4.87;;;3.07;;
10281;SDS011;5186;59.472;18.048;2023-06-26T00:26:10;4.70;;;3.70;;
10281;SDS011;5186;59.472;18.048;2023-06-26T00:28:36;4.13;;;3.73;;
10281;SDS011;5186;59.472;18.048;2023-06-26T00:31:02;4.57;;;3.30;;
10281;SDS011;5186;59.472;18.048;2023-06-26T00:33:27;4.20;;;3.13;;
10281;SDS011;5186;59.472;18.048;2023-06-26T00:35:53;6.33;;;3.17;;
10281;SDS011;5186;59.472;18.048;2023-06-26T00:38:18;5.00;;;3.43;;
10281;SDS011;5186;59.472;18.048;2023-06-26T00:40:44;5.30;;;3.43;;
10281;SDS011;5186;59.472;18.048;2023-06-26T00:43:10;4.23;;;3.13;;
10281;SDS011;5186;59.472;18.048;2023-06-26T00:45:35;4.43;;;3.30;;
10281;SDS011;5186;59.472;18.048;2023-06-26T00:48:01;4.50;;;3.30;;
10281;SDS011;5186;59.472;18.048;2023-06-26T00:50:27;4.00;;;3.50;;
10281;SDS011;5186;59.472;18.048;2023-06-26T00:52:53;4.87;;;3.43;;
10281;SDS011;5186;59.472;18.048;2023-06-26T00:55:21;3.73;;;3.40;;
10281;SDS011;5186;59.472;18.048;2023-06-26T00:57:47;4.50;;;3.50;;
10281;SDS011;5186;59.472;18.048;2023-06-26T01:00:14;4.47;;;3.40;;
10281;SDS011;5186;59.472;18.048;2023-06-26T01:02:40;3.77;;;3.37;;
10281;SDS011;5186;59.472;18.048;2023-06-26T01:05:06;4.60;;;3.47;;
10281;SDS011;5186;59.472;18.048;2023-06-26T01:07:33;5.73;;;3.67;;
10281;SDS011;5186;59.472;18.048;2023-06-26T01:10:01;3.87;;;3.00;;
10281;SDS011;5186;59.472;18.048;2023-06-26T01:12:31;3.53;;;3.10;;
10281;SDS011;5186;59.472;18.048;2023-06-26T01:14:58;4.60;;;3.10;;
10281;SDS011;5186;59.472;18.048;2023-06-26T01:17:24;3.97;;;3.20;;
10281;SDS011;5186;59.472;18.048;2023-06-26T01:19:52;3.97;;;3.57;;
10281;SDS011;5186;59.472;18.048;2023-06-26T01:22:20;4.07;;;3.67;;
10281;SDS011;5186;59.472;18.048;2023-06-26T01:25:03;4.33;;;3.20;;
10281;SDS011;5186;59.472;18.048;2023-06-26T01:27:33;4.57;;;3.37;;
10281;SDS011;5186;59.472;18.048;2023-06-26T01:30:00;4.80;;;3.60;;
10281;SDS011;5186;59.472;18.048;2023-06-26T01:32:29;4.33;;;3.20;;
10281;SDS011;5186;59.472;18.048;2023-06-26T01:34:57;4.23;;;3.60;;
10281;SDS011;5186;59.472;18.048;2023-06-26T01:37:25;4.00;;;3.20;;
10281;SDS011;5186;59.472;18.048;2023-06-26T01:39:50;4.00;;;3.30;;
10281;SDS011;5186;59.472;18.048;2023-06-26T01:42:16;4.13;;;3.43;;
10281;SDS011;5186;59.472;18.048;2023-06-26T01:44:44;4.27;;;3.80;;
10281;SDS011;5186;59.472;18.048;2023-06-26T01:47:12;4.47;;;3.37;;
10281;SDS011;5186;59.472;18.048;2023-06-26T01:52:20;3.60;;;3.30;;
10281;SDS011;5186;59.472;18.048;2023-06-26T01:54:57;4.30;;;3.17;;
10281;SDS011;5186;59.472;18.048;2023-06-26T01:57:28;3.77;;;3.47;;
10281;SDS011;5186;59.472;18.048;2023-06-26T01:59:56;4.00;;;3.40;;
10281;SDS011;5186;59.472;18.048;2023-06-26T02:02:24;6.17;;;3.37;;
10281;SDS011;5186;59.472;18.048;2023-06-26T02:04:50;4.90;;;3.40;;
10281;SDS011;5186;59.472;18.048;2023-06-26T02:07:16;3.97;;;3.57;;
10281;SDS011;5186;59.472;18.048;2023-06-26T02:09:42;4.67;;;3.40;;
10281;SDS011;5186;59.472;18.048;2023-06-26T02:12:08;4.43;;;3.30;;
10281;SDS011;5186;59.472;18.048;2023-06-26T02:14:34;6.97;;;3.70;;
10281;SDS011;5186;59.472;18.048;2023-06-26T02:16:59;4.70;;;3.80;;
10281;SDS011;5186;59.472;18.048;2023-06-26T02:19:25;4.63;;;3.40;;
10281;SDS011;5186;59.472;18.048;2023-06-26T02:21:52;4.00;;;3.60;;
10281;SDS011;5186;59.472;18.048;2023-06-26T02:24:20;4.27;;;3.40;;
10281;SDS011;5186;59.472;18.048;2023-06-26T02:26:46;4.90;;;3.70;;
10281;SDS011;5186;59.472;18.048;2023-06-26T02:29:14;3.60;;;3.30;;
10281;SDS011;5186;59.472;18.048;2023-06-26T02:31:39;5.70;;;3.87;;
10281;SDS011;5186;59.472;18.048;2023-06-26T02:34:05;3.77;;;3.40;;
10281;SDS011;5186;59.472;18.048;2023-06-26T02:36:31;8.37;;;3.97;;
10281;SDS011;5186;59.472;18.048;2023-06-26T02:38:56;4.87;;;3.63;;
10281;SDS011;5186;59.472;18.048;2023-06-26T02:41:22;5.90;;;3.80;;
10281;SDS011;5186;59.472;18.048;2023-06-26T02:43:48;5.00;;;3.47;;
10281;SDS011;5186;59.472;18.048;2023-06-26T02:46:13;5.80;;;3.80;;
10281;SDS011;5186;59.472;18.048;2023-06-26T02:48:39;4.40;;;3.53;;
10281;SDS011;5186;59.472;18.048;2023-06-26T02:51:04;3.77;;;3.07;;
10281;SDS011;5186;59.472;18.048;2023-06-26T02:53:31;4.53;;;3.70;;
10281;SDS011;5186;59.472;18.048;2023-06-26T02:55:56;4.27;;;3.73;;
10281;SDS011;5186;59.472;18.048;2023-06-26T02:58:22;4.10;;;3.50;;
10281;SDS011;5186;59.472;18.048;2023-06-26T03:00:47;3.90;;;3.50;;
10281;SDS011;5186;59.472;18.048;2023-06-26T03:03:13;4.13;;;3.67;;
10281;SDS011;5186;59.472;18.048;2023-06-26T03:05:39;7.23;;;3.93;;
10281;SDS011;5186;59.472;18.048;2023-06-26T03:08:04;4.80;;;3.90;;
10281;SDS011;5186;59.472;18.048;2023-06-26T03:10:30;8.10;;;4.20;;
10281;SDS011;5186;59.472;18.048;2023-06-26T03:12:55;6.10;;;4.03;;
10281;SDS011;5186;59.472;18.048;2023-06-26T03:15:21;4.57;;;3.87;;
10281;SDS011;5186;59.472;18.048;2023-06-26T03:17:46;7.50;;;4.23;;
10281;SDS011;5186;59.472;18.048;2023-06-26T03:20:12;6.67;;;4.10;;
10281;SDS011;5186;59.472;18.048;2023-06-26T03:22:38;7.07;;;4.30;;
10281;SDS011;5186;59.472;18.048;2023-06-26T03:25:03;6.93;;;3.77;;
10281;SDS011;5186;59.472;18.048;2023-06-26T03:27:29;6.33;;;4.30;;
10281;SDS011;5186;59.472;18.048;2023-06-26T03:29:55;5.53;;;3.90;;
10281;SDS011;5186;59.472;18.048;2023-06-26T03:32:21;5.13;;;4.00;;
10281;SDS011;5186;59.472;18.048;2023-06-26T03:34:46;5.07;;;4.33;;
10281;SDS011;5186;59.472;18.048;2023-06-26T03:37:12;5.60;;;3.80;;
10281;SDS011;5186;59.472;18.048;2023-06-26T03:39:38;5.93;;;4.53;;
10281;SDS011;5186;59.472;18.048;2023-06-26T03:42:03;5.40;;;3.87;;
10281;SDS011;5186;59.472;18.048;2023-06-26T03:44:29;7.57;;;4.27;;
10281;SDS011;5186;59.472;18.048;2023-06-26T03:46:55;5.70;;;4.13;;
10281;SDS011;5186;59.472;18.048;2023-06-26T03:49:20;6.40;;;4.00;;
10281;SDS011;5186;59.472;18.048;2023-06-26T03:51:46;4.93;;;3.77;;
10281;SDS011;5186;59.472;18.048;2023-06-26T03:54:11;5.30;;;4.00;;
10281;SDS011;5186;59.472;18.048;2023-06-26T03:56:37;4.90;;;4.27;;
10281;SDS011;5186;59.472;18.048;2023-06-26T03:59:03;5.00;;;4.13;;
10281;SDS011;5186;59.472;18.048;2023-06-26T04:01:28;5.17;;;4.40;;
10281;SDS011;5186;59.472;18.048;2023-06-26T04:03:54;6.77;;;4.23;;
10281;SDS011;5186;59.472;18.048;2023-06-26T04:06:20;4.90;;;4.37;;
10281;SDS011;5186;59.472;18.048;2023-06-26T04:08:45;5.37;;;4.33;;
10281;SDS011;5186;59.472;18.048;2023-06-26T04:11:11;5.23;;;4.13;;
10281;SDS011;5186;59.472;18.048;2023-06-26T04:13:36;6.20;;;4.43;;
10281;SDS011;5186;59.472;18.048;2023-06-26T04:16:02;5.23;;;4.47;;
10281;SDS011;5186;59.472;18.048;2023-06-26T04:18:28;5.30;;;4.30;;
10281;SDS011;5186;59.472;18.048;2023-06-26T04:23:34;5.53;;;4.47;;
10281;SDS011;5186;59.472;18.048;2023-06-26T04:26:00;4.57;;;3.93;;
10281;SDS011;5186;59.472;18.048;2023-06-26T04:28:27;5.40;;;4.03;;
10281;SDS011;5186;59.472;18.048;2023-06-26T04:30:53;6.30;;;4.33;;
10281;SDS011;5186;59.472;18.048;2023-06-26T04:33:19;4.97;;;3.93;;
10281;SDS011;5186;59.472;18.048;2023-06-26T04:35:44;5.90;;;4.23;;
10281;SDS011;5186;59.472;18.048;2023-06-26T04:38:13;4.50;;;3.70;;
10281;SDS011;5186;59.472;18.048;2023-06-26T04:40:42;4.80;;;3.87;;
10281;SDS011;5186;59.472;18.048;2023-06-26T04:43:08;4.77;;;3.90;;
10281;SDS011;5186;59.472;18.048;2023-06-26T04:45:33;4.23;;;3.83;;
10281;SDS011;5186;59.472;18.048;2023-06-26T04:47:59;4.67;;;4.00;;
10281;SDS011;5186;59.472;18.048;2023-06-26T04:50:27;4.17;;;3.77;;
10281;SDS011;5186;59.472;18.048;2023-06-26T04:52:54;4.30;;;3.90;;
10281;SDS011;5186;59.472;18.048;2023-06-26T04:55:20;4.40;;;3.73;;
10281;SDS011;5186;59.472;18.048;2023-06-26T04:57:46;5.83;;;3.83;;
10281;SDS011;5186;59.472;18.048;2023-06-26T05:00:12;6.93;;;3.77;;
10281;SDS011;5186;59.472;18.048;2023-06-26T05:02:39;6.10;;;4.10;;
10281;SDS011;5186;59.472;18.048;2023-06-26T05:05:04;5.07;;;3.87;;
10281;SDS011;5186;59.472;18.048;2023-06-26T05:07:30;6.03;;;3.47;;
10281;SDS011;5186;59.472;18.048;2023-06-26T05:09:56;4.73;;;3.70;;
10281;SDS011;5186;59.472;18.048;2023-06-26T05:12:21;3.93;;;3.53;;
10281;SDS011;5186;59.472;18.048;2023-06-26T05:14:47;4.57;;;3.73;;
10281;SDS011;5186;59.472;18.048;2023-06-26T05:17:16;8.43;;;3.63;;
10281;SDS011;5186;59.472;18.048;2023-06-26T05:19:41;3.67;;;3.30;;
10281;SDS011;5186;59.472;18.048;2023-06-26T05:22:07;3.77;;;2.87;;
10281;SDS011;5186;59.472;18.048;2023-06-26T05:24:34;4.90;;;3.27;;
10281;SDS011;5186;59.472;18.048;2023-06-26T05:27:01;9.73;;;3.80;;
10281;SDS011;5186;59.472;18.048;2023-06-26T05:29:27;5.77;;;3.37;;
10281;SDS011;5186;59.472;18.048;2023-06-26T05:31:55;4.30;;;3.33;;
10281;SDS011;5186;59.472;18.048;2023-06-26T05:34:24;3.97;;;3.00;;
10281;SDS011;5186;59.472;18.048;2023-06-26T05:36:55;3.47;;;3.00;;
10281;SDS011;5186;59.472;18.048;2023-06-26T05:39:22;3.30;;;3.00;;
10281;SDS011;5186;59.472;18.048;2023-06-26T05:41:48;5.37;;;2.60;;
10281;SDS011;5186;59.472;18.048;2023-06-26T05:44:14;3.47;;;2.67;;
10281;SDS011;5186;59.472;18.048;2023-06-26T05:46:39;4.40;;;2.77;;
10281;SDS011;5186;59.472;18.048;2023-06-26T05:49:05;3.00;;;2.40;;
10281;SDS011;5186;59.472;18.048;2023-06-26T05:51:31;3.27;;;2.97;;
10281;SDS011;5186;59.472;18.048;2023-06-26T05:53:56;3.37;;;2.80;;
10281;SDS011;5186;59.472;18.048;2023-06-26T05:56:22;5.17;;;2.67;;
10281;SDS011;5186;59.472;18.048;2023-06-26T05:58:48;2.90;;;2.70;;
10281;SDS011;5186;59.472;18.048;2023-06-26T06:01:15;2.90;;;2.60;;
10281;SDS011;5186;59.472;18.048;2023-06-26T06:03:41;3.70;;;2.63;;
10281;SDS011;5186;59.472;18.048;2023-06-26T06:06:06;2.57;;;2.37;;
10281;SDS011;5186;59.472;18.048;2023-06-26T06:08:32;4.47;;;2.60;;
10281;SDS011;5186;59.472;18.048;2023-06-26T06:10:59;2.40;;;2.20;;
10281;SDS011;5186;59.472;18.048;2023-06-26T06:13:24;3.10;;;2.20;;
10281;SDS011;5186;59.472;18.048;2023-06-26T06:15:50;3.53;;;2.30;;
10281;SDS011;5186;59.472;18.048;2023-06-26T06:18:16;2.80;;;2.47;;
10281;SDS011;5186;59.472;18.048;2023-06-26T06:20:41;3.40;;;2.53;;
10281;SDS011;5186;59.472;18.048;2023-06-26T06:23:07;23.50;;;5.27;;
10281;SDS011;5186;59.472;18.048;2023-06-26T06:25:32;3.60;;;2.03;;
10281;SDS011;5186;59.472;18.048;2023-06-26T06:27:58;3.87;;;2.27;;
10281;SDS011;5186;59.472;18.048;2023-06-26T06:30:24;3.00;;;2.40;;
10281;SDS011;5186;59.472;18.048;2023-06-26T06:32:49;3.07;;;2.53;;
10281;SDS011;5186;59.472;18.048;2023-06-26T06:35:17;3.70;;;2.07;;
10281;SDS011;5186;59.472;18.048;2023-06-26T06:37:43;3.00;;;2.10;;
10281;SDS011;5186;59.472;18.048;2023-06-26T06:40:09;2.83;;;2.33;;
10281;SDS011;5186;59.472;18.048;2023-06-26T06:42:35;2.83;;;2.07;;
10281;SDS011;5186;59.472;18.048;2023-06-26T06:45:04;2.20;;;2.00;;
10281;SDS011;5186;59.472;18.048;2023-06-26T06:47:31;3.70;;;2.27;;
10281;SDS011;5186;59.472;18.048;2023-06-26T06:49:57;1.93;;;1.83;;
10281;SDS011;5186;59.472;18.048;2023-06-26T06:52:23;2.87;;;2.00;;
10281;SDS011;5186;59.472;18.048;2023-06-26T06:54:53;2.60;;;2.00;;
10281;SDS011;5186;59.472;18.048;2023-06-26T06:57:20;2.80;;;2.10;;
10281;SDS011;5186;59.472;18.048;2023-06-26T06:59:46;2.23;;;2.03;;
10281;SDS011;5186;59.472;18.048;2023-06-26T07:02:13;2.73;;;2.10;;
10281;SDS011;5186;59.472;18.048;2023-06-26T07:04:39;3.97;;;1.83;;
10281;SDS011;5186;59.472;18.048;2023-06-26T07:07:05;2.03;;;1.83;;
10281;SDS011;5186;59.472;18.048;2023-06-26T07:09:30;2.73;;;1.93;;
10281;SDS011;5186;59.472;18.048;2023-06-26T07:11:56;3.37;;;1.90;;
10281;SDS011;5186;59.472;18.048;2023-06-26T07:14:22;2.30;;;2.10;;
10281;SDS011;5186;59.472;18.048;2023-06-26T07:16:48;2.33;;;2.00;;
10281;SDS011;5186;59.472;18.048;2023-06-26T07:19:13;2.10;;;1.87;;
10281;SDS011;5186;59.472;18.048;2023-06-26T07:21:39;1.93;;;1.73;;
10281;SDS011;5186;59.472;18.048;2023-06-26T07:24:06;2.33;;;2.13;;
10281;SDS011;5186;59.472;18.048;2023-06-26T07:26:32;2.50;;;1.97;;
10281;SDS011;5186;59.472;18.048;2023-06-26T07:28:58;2.70;;;1.83;;
10281;SDS011;5186;59.472;18.048;2023-06-26T07:31:23;3.90;;;1.67;;
10281;SDS011;5186;59.472;18.048;2023-06-26T07:33:49;2.60;;;1.97;;
10281;SDS011;5186;59.472;18.048;2023-06-26T07:36:14;2.23;;;1.60;;
10281;SDS011;5186;59.472;18.048;2023-06-26T07:38:40;2.93;;;1.93;;
10281;SDS011;5186;59.472;18.048;2023-06-26T07:41:05;2.53;;;2.00;;
10281;SDS011;5186;59.472;18.048;2023-06-26T07:43:31;2.47;;;1.93;;
10281;SDS011;5186;59.472;18.048;2023-06-26T07:45:56;2.67;;;2.00;;
10281;SDS011;5186;59.472;18.048;2023-06-26T07:48:23;2.97;;;2.27;;
10281;SDS011;5186;59.472;18.048;2023-06-26T07:50:50;2.20;;;1.97;;
10281;SDS011;5186;59.472;18.048;2023-06-26T07:53:15;2.00;;;1.80;;
10281;SDS011;5186;59.472;18.048;2023-06-26T07:55:41;2.07;;;1.97;;
10281;SDS011;5186;59.472;18.048;2023-06-26T07:58:07;2.77;;;1.90;;
10281;SDS011;5186;59.472;18.048;2023-06-26T08:00:33;2.50;;;2.07;;
10281;SDS011;5186;59.472;18.048;2023-06-26T08:02:59;2.97;;;2.03;;
10281;SDS011;5186;59.472;18.048;2023-06-26T08:05:24;2.50;;;2.00;;
10281;SDS011;5186;59.472;18.048;2023-06-26T08:07:50;3.53;;;2.13;;
10281;SDS011;5186;59.472;18.048;2023-06-26T08:10:16;3.00;;;2.23;;
10281;SDS011;5186;59.472;18.048;2023-06-26T08:12:41;2.30;;;1.90;;
10281;SDS011;5186;59.472;18.048;2023-06-26T08:15:10;2.13;;;1.93;;
10281;SDS011;5186;59.472;18.048;2023-06-26T08:17:36;1.80;;;1.70;;
10281;SDS011;5186;59.472;18.048;2023-06-26T08:20:03;2.17;;;1.97;;
10281;SDS011;5186;59.472;18.048;2023-06-26T08:22:30;2.23;;;1.63;;
10281;SDS011;5186;59.472;18.048;2023-06-26T08:24:55;2.20;;;1.90;;
10281;SDS011;5186;59.472;18.048;2023-06-26T08:27:21;2.07;;;1.57;;
10281;SDS011;5186;59.472;18.048;2023-06-26T08:29:47;2.07;;;1.87;;
10281;SDS011;5186;59.472;18.048;2023-06-26T08:32:12;2.23;;;2.00;;
10281;SDS011;5186;59.472;18.048;2023-06-26T08:34:38;4.07;;;1.60;;
10281;SDS011;5186;59.472;18.048;2023-06-26T08:37:04;2.40;;;1.80;;
10281;SDS011;5186;59.472;18.048;2023-06-26T08:39:30;2.10;;;1.73;;
10281;SDS011;5186;59.472;18.048;2023-06-26T08:41:55;5.43;;;1.70;;
10281;SDS011;5186;59.472;18.048;2023-06-26T08:44:21;1.60;;;1.50;;
10281;SDS011;5186;59.472;18.048;2023-06-26T08:46:50;1.60;;;1.50;;
10281;SDS011;5186;59.472;18.048;2023-06-26T08:49:50;3.03;;;1.63;;
10281;SDS011;5186;59.472;18.048;2023-06-26T08:52:22;2.27;;;1.80;;
10281;SDS011;5186;59.472;18.048;2023-06-26T08:54:52;2.07;;;1.47;;
10281;SDS011;5186;59.472;18.048;2023-06-26T08:57:21;1.70;;;1.60;;
10281;SDS011;5186;59.472;18.048;2023-06-26T08:59:48;2.03;;;1.40;;
10281;SDS011;5186;59.472;18.048;2023-06-26T09:02:14;1.57;;;1.47;;
10281;SDS011;5186;59.472;18.048;2023-06-26T09:04:40;1.80;;;1.70;;
10281;SDS011;5186;59.472;18.048;2023-06-26T09:07:06;1.50;;;1.40;;
10281;SDS011;5186;59.472;18.048;2023-06-26T09:09:32;2.50;;;1.50;;
10281;SDS011;5186;59.472;18.048;2023-06-26T09:11:58;1.47;;;1.37;;
10281;SDS011;5186;59.472;18.048;2023-06-26T09:14:24;1.80;;;1.70;;
10281;SDS011;5186;59.472;18.048;2023-06-26T09:16:49;1.90;;;1.70;;
10281;SDS011;5186;59.472;18.048;2023-06-26T09:19:15;2.47;;;1.60;;
10281;SDS011;5186;59.472;18.048;2023-06-26T09:21:41;2.57;;;1.73;;
10281;SDS011;5186;59.472;18.048;2023-06-26T09:24:08;4.30;;;1.47;;
10281;SDS011;5186;59.472;18.048;2023-06-26T09:26:38;1.50;;;1.40;;
10281;SDS011;5186;59.472;18.048;2023-06-26T09:29:05;3.40;;;1.73;;
10281;SDS011;5186;59.472;18.048;2023-06-26T09:31:36;1.70;;;1.50;;
10281;SDS011;5186;59.472;18.048;2023-06-26T09:34:02;2.27;;;1.10;;
10281;SDS011;5186;59.472;18.048;2023-06-26T09:36:29;1.67;;;1.57;;
10281;SDS011;5186;59.472;18.048;2023-06-26T09:39:00;1.73;;;1.60;;
10281;SDS011;5186;59.472;18.048;2023-06-26T09:41:33;2.20;;;1.50;;
10281;SDS011;5186;59.472;18.048;2023-06-26T09:44:01;2.17;;;1.70;;
10281;SDS011;5186;59.472;18.048;2023-06-26T09:46:28;2.77;;;1.77;;
10281;SDS011;5186;59.472;18.048;2023-06-26T09:49:12;1.80;;;1.70;;
10281;SDS011;5186;59.472;18.048;2023-06-26T09:51:38;2.83;;;2.10;;
10281;SDS011;5186;59.472;18.048;2023-06-26T09:54:05;1.90;;;1.50;;
10281;SDS011;5186;59.472;18.048;2023-06-26T09:56:31;2.27;;;1.63;;
10281;SDS011;5186;59.472;18.048;2023-06-26T09:58:58;1.50;;;1.40;;
10281;SDS011;5186;59.472;18.048;2023-06-26T10:01:29;1.93;;;1.60;;
10281;SDS011;5186;59.472;18.048;2023-06-26T10:03:55;1.50;;;1.40;;
10281;SDS011;5186;59.472;18.048;2023-06-26T10:06:28;1.33;;;1.20;;
10281;SDS011;5186;59.472;18.048;2023-06-26T10:08:59;1.80;;;1.70;;
10281;SDS011;5186;59.472;18.048;2023-06-26T10:11:29;1.50;;;1.40;;
10281;SDS011;5186;59.472;18.048;2023-06-26T10:14:07;1.40;;;1.30;;
10281;SDS011;5186;59.472;18.048;2023-06-26T10:16:34;2.47;;;1.63;;
10281;SDS011;5186;59.472;18.048;2023-06-26T10:19:02;1.97;;;1.40;;
10281;SDS011;5186;59.472;18.048;2023-06-26T10:21:31;1.50;;;1.40;;
10281;SDS011;5186;59.472;18.048;2023-06-26T10:23:59;2.13;;;1.40;;
10281;SDS011;5186;59.472;18.048;2023-06-26T10:26:27;1.30;;;1.20;;
10281;SDS011;5186;59.472;18.048;2023-06-26T10:28:53;2.73;;;1.27;;
10281;SDS011;5186;59.472;18.048;2023-06-26T10:31:21;1.30;;;1.13;;
10281;SDS011;5186;59.472;18.048;2023-06-26T10:33:51;1.40;;;1.30;;
10281;SDS011;5186;59.472;18.048;2023-06-26T10:36:18;1.80;;;1.50;;
10281;SDS011;5186;59.472;18.048;2023-06-26T10:38:53;1.67;;;1.43;;
10281;SDS011;5186;59.472;18.048;2023-06-26T10:41:21;1.30;;;1.17;;
10281;SDS011;5186;59.472;18.048;2023-06-26T10:44:07;2.30;;;1.30;;
10281;SDS011;5186;59.472;18.048;2023-06-26T10:46:53;2.67;;;1.40;;
10281;SDS011;5186;59.472;18.048;2023-06-26T10:49:29;3.07;;;1.47;;
10281;SDS011;5186;59.472;18.048;2023-06-26T10:51:55;1.67;;;1.57;;
10281;SDS011;5186;59.472;18.048;2023-06-26T10:54:28;1.50;;;1.40;;
10281;SDS011;5186;59.472;18.048;2023-06-26T10:56:55;1.40;;;1.30;;
10281;SDS011;5186;59.472;18.048;2023-06-26T10:59:22;1.40;;;1.30;;
10281;SDS011;5186;59.472;18.048;2023-06-26T11:02:01;1.20;;;1.10;;
10281;SDS011;5186;59.472;18.048;2023-06-26T11:07:21;1.50;;;1.40;;
10281;SDS011;5186;59.472;18.048;2023-06-26T11:09:58;1.67;;;1.40;;
10281;SDS011;5186;59.472;18.048;2023-06-26T11:12:36;2.27;;;1.43;;
10281;SDS011;5186;59.472;18.048;2023-06-26T11:15:09;1.03;;;1.00;;
10281;SDS011;5186;59.472;18.048;2023-06-26T11:17:36;2.17;;;1.17;;
10281;SDS011;5186;59.472;18.048;2023-06-26T11:20:04;1.53;;;1.30;;
10281;SDS011;5186;59.472;18.048;2023-06-26T11:22:34;1.33;;;1.20;;
10281;SDS011;5186;59.472;18.048;2023-06-26T11:25:01;1.70;;;1.37;;
10281;SDS011;5186;59.472;18.048;2023-06-26T11:27:41;1.40;;;1.30;;
10281;SDS011;5186;59.472;18.048;2023-06-26T11:30:08;3.10;;;1.40;;
10281;SDS011;5186;59.472;18.048;2023-06-26T11:32:36;1.87;;;1.40;;
10281;SDS011;5186;59.472;18.048;2023-06-26T11:35:02;1.47;;;1.37;;
10281;SDS011;5186;59.472;18.048;2023-06-26T11:37:31;2.13;;;1.47;;
10281;SDS011;5186;59.472;18.048;2023-06-26T11:39:57;3.53;;;1.60;;
10281;SDS011;5186;59.472;18.048;2023-06-26T11:42:23;1.97;;;1.43;;
10281;SDS011;5186;59.472;18.048;2023-06-26T11:44:50;1.50;;;1.40;;
10281;SDS011;5186;59.472;18.048;2023-06-26T11:47:17;1.67;;;1.43;;
10281;SDS011;5186;59.472;18.048;2023-06-26T11:49:44;1.60;;;1.50;;
10281;SDS011;5186;59.472;18.048;2023-06-26T11:52:10;2.33;;;1.50;;
10281;SDS011;5186;59.472;18.048;2023-06-26T11:54:36;1.53;;;1.40;;
10281;SDS011;5186;59.472;18.048;2023-06-26T11:57:02;1.57;;;1.30;;
10281;SDS011;5186;59.472;18.048;2023-06-26T11:59:33;1.33;;;1.23;;
10281;SDS011;5186;59.472;18.048;2023-06-26T12:02:07;1.50;;;1.40;;
10281;SDS011;5186;59.472;18.048;2023-06-26T12:04:35;2.40;;;1.30;;
10281;SDS011;5186;59.472;18.048;2023-06-26T12:07:06;2.00;;;1.20;;
10281;SDS011;5186;59.472;18.048;2023-06-26T12:09:34;2.03;;;1.30;;
10281;SDS011;5186;59.472;18.048;2023-06-26T12:12:07;2.20;;;1.30;;
10281;SDS011;5186;59.472;18.048;2023-06-26T12:14:33;2.33;;;1.30;;
10281;SDS011;5186;59.472;18.048;2023-06-26T12:17:07;1.30;;;1.20;;
10281;SDS011;5186;59.472;18.048;2023-06-26T12:19:38;1.47;;;1.37;;
10281;SDS011;5186;59.472;18.048;2023-06-26T12:22:08;1.70;;;1.23;;
10281;SDS011;5186;59.472;18.048;2023-06-26T12:24:37;1.80;;;1.33;;
10281;SDS011;5186;59.472;18.048;2023-06-26T12:27:07;1.63;;;1.10;;
10281;SDS011;5186;59.472;18.048;2023-06-26T12:29:34;1.20;;;1.10;;
10281;SDS011;5186;59.472;18.048;2023-06-26T12:32:00;1.97;;;1.13;;
10281;SDS011;5186;59.472;18.048;2023-06-26T12:34:27;1.13;;;1.03;;
10281;SDS011;5186;59.472;18.048;2023-06-26T12:37:01;1.37;;;1.27;;
10281;SDS011;5186;59.472;18.048;2023-06-26T12:39:30;1.53;;;1.30;;
10281;SDS011;5186;59.472;18.048;2023-06-26T12:42:12;1.30;;;1.20;;
10281;SDS011;5186;59.472;18.048;2023-06-26T12:44:39;1.97;;;1.20;;
10281;SDS011;5186;59.472;18.048;2023-06-26T12:47:04;2.60;;;1.30;;
10281;SDS011;5186;59.472;18.048;2023-06-26T12:52:14;1.80;;;1.30;;
10281;SDS011;5186;59.472;18.048;2023-06-26T12:54:41;1.40;;;1.20;;
10281;SDS011;5186;59.472;18.048;2023-06-26T12:57:08;2.53;;;1.20;;
10281;SDS011;5186;59.472;18.048;2023-06-26T12:59:37;1.40;;;1.30;;
10281;SDS011;5186;59.472;18.048;2023-06-26T13:02:03;1.20;;;1.10;;
10281;SDS011;5186;59.472;18.048;2023-06-26T13:04:30;1.40;;;1.30;;
10281;SDS011;5186;59.472;18.048;2023-06-26T13:06:55;2.07;;;1.20;;
10281;SDS011;5186;59.472;18.048;2023-06-26T13:09:22;1.80;;;1.03;;
10281;SDS011;5186;59.472;18.048;2023-06-26T13:11:49;1.43;;;1.10;;
10281;SDS011;5186;59.472;18.048;2023-06-26T13:14:16;1.47;;;1.10;;
10281;SDS011;5186;59.472;18.048;2023-06-26T13:16:41;1.57;;;1.20;;
10281;SDS011;5186;59.472;18.048;2023-06-26T13:19:07;1.30;;;1.20;;
10281;SDS011;5186;59.472;18.048;2023-06-26T13:21:33;1.30;;;1.20;;
10281;SDS011;5186;59.472;18.048;2023-06-26T13:24:00;1.37;;;1.27;;
10281;SDS011;5186;59.472;18.048;2023-06-26T13:26:26;1.17;;;1.00;;
10281;SDS011;5186;59.472;18.048;2023-06-26T13:28:53;3.53;;;1.27;;
10281;SDS011;5186;59.472;18.048;2023-06-26T13:31:19;1.77;;;1.10;;
10281;SDS011;5186;59.472;18.048;2023-06-26T13:33:46;1.73;;;1.40;;
10281;SDS011;5186;59.472;18.048;2023-06-26T13:36:14;1.27;;;1.10;;
10281;SDS011;5186;59.472;18.048;2023-06-26T13:38:40;1.93;;;1.40;;
10281;SDS011;5186;59.472;18.048;2023-06-26T13:41:06;1.67;;;1.27;;
10281;SDS011;5186;59.472;18.048;2023-06-26T13:43:31;1.40;;;1.20;;
10281;SDS011;5186;59.472;18.048;2023-06-26T13:45:57;1.77;;;1.27;;
10281;SDS011;5186;59.472;18.048;2023-06-26T13:48:23;1.47;;;1.37;;
10281;SDS011;5186;59.472;18.048;2023-06-26T13:50:52;1.77;;;1.30;;
10281;SDS011;5186;59.472;18.048;2023-06-26T13:53:18;1.27;;;1.17;;
10281;SDS011;5186;59.472;18.048;2023-06-26T13:55:43;1.87;;;1.47;;
10281;SDS011;5186;59.472;18.048;2023-06-26T13:58:09;1.27;;;1.17;;
10281;SDS011;5186;59.472;18.048;2023-06-26T14:00:36;1.40;;;1.30;;
10281;SDS011;5186;59.472;18.048;2023-06-26T14:03:05;1.67;;;1.10;;
10281;SDS011;5186;59.472;18.048;2023-06-26T14:05:32;1.27;;;1.17;;
10281;SDS011;5186;59.472;18.048;2023-06-26T14:07:58;1.57;;;1.30;;
10281;SDS011;5186;59.472;18.048;2023-06-26T14:10:24;1.43;;;1.00;;
10281;SDS011;5186;59.472;18.048;2023-06-26T14:12:50;1.70;;;1.50;;
10281;SDS011;5186;59.472;18.048;2023-06-26T14:15:16;1.23;;;1.13;;
10281;SDS011;5186;59.472;18.048;2023-06-26T14:17:41;2.13;;;1.20;;
10281;SDS011;5186;59.472;18.048;2023-06-26T14:20:07;1.50;;;1.27;;
10281;SDS011;5186;59.472;18.048;2023-06-26T14:22:41;3.93;;;1.40;;
10281;SDS011;5186;59.472;18.048;2023-06-26T14:25:08;1.90;;;1.20;;
10281;SDS011;5186;59.472;18.048;2023-06-26T14:27:34;1.80;;;1.30;;
10281;SDS011;5186;59.472;18.048;2023-06-26T14:30:00;1.57;;;1.20;;
10281;SDS011;5186;59.472;18.048;2023-06-26T14:32:26;1.47;;;1.37;;
10281;SDS011;5186;59.472;18.048;2023-06-26T14:34:51;1.40;;;1.30;;
10281;SDS011;5186;59.472;18.048;2023-06-26T14:37:17;1.47;;;1.37;;
10281;SDS011;5186;59.472;18.048;2023-06-26T14:39:44;1.77;;;1.20;;
10281;SDS011;5186;59.472;18.048;2023-06-26T14:42:10;1.30;;;1.13;;
10281;SDS011;5186;59.472;18.048;2023-06-26T14:44:35;2.60;;;1.40;;
10281;SDS011;5186;59.472;18.048;2023-06-26T14:47:01;1.83;;;1.30;;
10281;SDS011;5186;59.472;18.048;2023-06-26T14:49:27;1.30;;;1.20;;
10281;SDS011;5186;59.472;18.048;2023-06-26T14:51:52;1.27;;;1.17;;
10281;SDS011;5186;59.472;18.048;2023-06-26T14:54:18;1.73;;;1.40;;
10281;SDS011;5186;59.472;18.048;2023-06-26T14:56:43;2.60;;;1.20;;
10281;SDS011;5186;59.472;18.048;2023-06-26T14:59:10;1.93;;;1.50;;